Airfield :
LOGIN :

Register | Disclaimer

   EN    FR    IT 

 










Legend :    VFR   Marginal VFR   IFR   Intensive IFR   Very Intensive IFR
Visi :
Ceiling :
>= 8 km
>= 3000ft
5 to 8 km
1000 to 3000 ft
1500m to 5 km
500 to 1000 ft
800 to 1500m
200 to 500 ft
< 800m
< 200 ft
Symbols :   Thunderstorms  Fog  Heavy snow  Heavy precipitations  Wind > 20 kt
SIGMETs :     Misc.  Thunderstorms  Icing  Turbulence  Mountain Waves  Volcanic Ashes






- Airport Elevation : 636 ft


LPBJ - Beja Air Base

CURRENT METAR :
  • 210833Z VRB02KT 4000 -RA BKN012 BKN017 12/12 Q1009

EXPIRED METARs :
  • 210800Z 18003KT 9999 -RA SCT012 BKN017 12/12 Q1009
  • 210700Z 22006KT 9999 -RA FEW003 BKN030 12/12 Q1009
  • 210600Z 22005KT 9999 FEW003 SCT030 12/12 Q1008

TAF TAF LPBJ
Valid from the 21 at 06:00 until the 22 at 06:00 UTC


210503Z 2106/2206 21008KT 9999 FEW018 SCT030
TEMPO 2106/2115 6000 -RA SCT014 BKN020
PROB30
TEMPO 2106/2114 1400 -RADZ BR SCT002 BKN004
PROB30 2122/2203 VRB02KT 0400 FG BKN001
BECMG 2202/2204 21012KT 7000 -RA SCT012 BKN018
TEMPO 2204/2206 22015G25KT 4000 -RADZ BR SCT008 BKN012



MET'MAP, your aeronautical weather chart ! - Copyright ORBIFLY December 2007 - Disclaimer

ORBIFLY MET'MAP TEAM :

Programming & Development : Alexandra Zaïnal
Concept & Development : Baudouin d'Aumeries
Co-Development & Prog : Marc-Olivier Méhu
Technical & hardware support : Manuel Goepfert

Contact : metmap@orbifly.com




SOURCES & CREDITS :

   NOAA